createdAt,value
2023-03-24T00:02:37.691Z,14.27
2023-03-24T00:07:41.602Z,14.25
2023-03-24T00:12:46.388Z,14.26
2023-03-24T00:17:52.819Z,14.28
2023-03-24T00:22:59.373Z,14.29
2023-03-24T00:28:01.886Z,14.30
2023-03-24T00:33:04.298Z,14.29
2023-03-24T00:38:06.194Z,14.29
2023-03-24T00:43:09.389Z,14.29
2023-03-24T00:48:15.176Z,14.28
2023-03-24T00:53:19.231Z,14.26
2023-03-24T00:58:21.814Z,14.22
2023-03-24T01:03:28.191Z,14.18
2023-03-24T01:08:30.000Z,14.14
2023-03-24T01:13:32.065Z,14.11
2023-03-24T01:18:35.101Z,14.09
2023-03-24T01:23:38.317Z,14.08
2023-03-24T01:28:41.154Z,14.08
2023-03-24T01:33:43.048Z,14.07
2023-03-24T01:38:45.601Z,14.08
2023-03-24T01:43:47.774Z,14.06
2023-03-24T01:49:03.150Z,14.07
2023-03-24T01:54:08.444Z,14.08
2023-03-24T01:59:15.056Z,14.08
2023-03-24T02:04:40.390Z,14.06
2023-03-24T02:09:42.914Z,14.05
2023-03-24T02:14:44.934Z,14.04
2023-03-24T02:19:58.737Z,14.03
2023-03-24T02:25:41.694Z,14.04
2023-03-24T02:31:05.021Z,14.05
2023-03-24T02:36:21.884Z,14.06
2023-03-24T02:41:40.972Z,14.07
2023-03-24T02:46:48.443Z,14.07
2023-03-24T02:51:53.326Z,14.04
2023-03-24T02:57:09.840Z,13.98
2023-03-24T03:02:41.759Z,13.90
2023-03-24T03:07:47.045Z,13.80
2023-03-24T03:12:53.069Z,13.71
2023-03-24T03:18:18.817Z,13.61
2023-03-24T03:23:28.425Z,13.51
2023-03-24T03:28:33.047Z,13.44
2023-03-24T03:33:49.944Z,13.35
2023-03-24T03:39:00.378Z,13.26
2023-03-24T03:44:02.403Z,13.18
2023-03-24T03:49:07.728Z,13.11
2023-03-24T03:54:13.574Z,13.02
2023-03-24T03:59:42.457Z,12.89
2023-03-24T04:05:05.717Z,12.78
2023-03-24T04:10:36.245Z,12.67
2023-03-24T04:15:45.661Z,12.55
2023-03-24T04:21:28.574Z,12.43
2023-03-24T04:26:54.777Z,12.29
2023-03-24T04:32:30.552Z,12.18
2023-03-24T04:37:38.099Z,12.08
2023-03-24T04:42:52.726Z,11.99
2023-03-24T04:47:59.663Z,11.88
2023-03-24T04:53:16.349Z,11.79
2023-03-24T04:58:20.389Z,11.73
2023-03-24T05:06:28.384Z,11.68
2023-03-24T05:11:30.319Z,11.65
2023-03-24T05:16:38.050Z,11.64
2023-03-24T05:21:40.195Z,11.64
2023-03-24T05:26:42.284Z,11.64
2023-03-24T05:31:49.294Z,11.64
2023-03-24T05:36:53.054Z,11.66
2023-03-24T05:41:56.654Z,11.68
2023-03-24T05:46:58.370Z,11.72
2023-03-24T05:52:01.846Z,11.78
2023-03-24T05:57:04.514Z,11.81
2023-03-24T06:02:17.562Z,11.85
2023-03-24T06:07:34.324Z,11.92
2023-03-24T06:12:36.190Z,11.98
2023-03-24T06:17:38.500Z,12.03
2023-03-24T06:22:47.616Z,12.07
2023-03-24T06:27:52.082Z,12.13
2023-03-24T06:32:57.398Z,12.19
2023-03-24T06:37:59.337Z,12.24
2023-03-24T06:43:01.603Z,12.33
2023-03-24T06:48:04.429Z,12.41
2023-03-24T06:53:06.767Z,12.53
2023-03-24T06:58:11.013Z,12.72
2023-03-24T07:03:48.564Z,13.01
2023-03-24T07:09:09.353Z,13.29
2023-03-24T07:14:11.941Z,13.50
2023-03-24T07:19:14.584Z,13.76
2023-03-24T07:24:19.697Z,14.06
2023-03-24T07:29:32.419Z,14.42
2023-03-24T07:34:51.608Z,14.79
2023-03-24T07:39:54.528Z,15.12
2023-03-24T07:44:56.498Z,15.39
2023-03-24T07:49:59.359Z,15.63
2023-03-24T07:55:01.088Z,15.93
2023-03-24T08:00:20.522Z,16.28
2023-03-24T08:05:37.473Z,16.57
2023-03-24T08:11:05.604Z,16.93
2023-03-24T08:16:07.916Z,17.33
2023-03-24T08:21:09.634Z,17.77
2023-03-24T08:26:11.988Z,18.21
2023-03-24T08:31:13.817Z,18.52
2023-03-24T08:36:16.881Z,18.82
2023-03-24T08:41:18.853Z,19.03
2023-03-24T08:46:21.091Z,19.17
2023-03-24T08:51:23.575Z,19.31
2023-03-24T08:56:25.997Z,19.36
2023-03-24T09:01:28.455Z,19.39
2023-03-24T09:06:30.425Z,19.49
2023-03-24T09:11:32.095Z,19.64
2023-03-24T09:16:34.715Z,19.92
2023-03-24T09:21:38.529Z,20.24
2023-03-24T09:26:41.179Z,20.42
2023-03-24T09:31:42.917Z,20.55
2023-03-24T09:36:44.704Z,20.59
2023-03-24T09:41:47.880Z,20.52
2023-03-24T09:46:57.545Z,20.48
2023-03-24T09:52:06.371Z,20.67
2023-03-24T09:57:38.908Z,20.82
2023-03-24T10:02:40.910Z,21.00
2023-03-24T10:07:49.125Z,21.03
2023-03-24T10:12:51.037Z,21.20
2023-03-24T10:18:11.083Z,21.28
2023-03-24T10:23:43.973Z,21.25
2023-03-24T10:28:52.559Z,21.43
2023-03-24T10:33:54.776Z,21.46
2023-03-24T10:38:58.729Z,21.32
2023-03-24T10:44:02.487Z,21.33
2023-03-24T10:49:31.297Z,21.34
2023-03-24T10:54:33.153Z,21.37
2023-03-24T10:59:39.766Z,21.38
2023-03-24T11:04:48.576Z,21.44
2023-03-24T11:10:07.552Z,21.48
2023-03-24T11:15:24.086Z,21.50
2023-03-24T11:20:32.408Z,21.42
2023-03-24T11:25:39.051Z,21.34
2023-03-24T11:31:08.079Z,21.21
2023-03-24T11:36:34.979Z,21.06
2023-03-24T11:41:39.323Z,20.85
2023-03-24T11:46:43.534Z,20.69
2023-03-24T11:51:49.393Z,20.67
2023-03-24T11:56:59.130Z,20.74
2023-03-24T12:02:12.079Z,20.82
2023-03-24T12:07:35.696Z,20.84
2023-03-24T12:12:59.712Z,20.70
2023-03-24T12:18:27.705Z,20.55
2023-03-24T12:23:36.215Z,20.43
2023-03-24T12:29:09.213Z,20.38
2023-03-24T12:34:46.278Z,20.35
2023-03-24T12:40:00.084Z,20.38
2023-03-24T12:45:22.368Z,20.42
2023-03-24T12:50:52.393Z,20.45
2023-03-24T12:56:21.803Z,20.46
2023-03-24T13:01:38.982Z,20.44
2023-03-24T13:07:12.023Z,20.38
2023-03-24T13:12:19.778Z,20.39
2023-03-24T13:17:28.512Z,20.37
2023-03-24T13:22:32.033Z,20.23
2023-03-24T13:27:41.542Z,20.05
2023-03-24T13:32:52.358Z,19.92
2023-03-24T13:38:01.114Z,19.83
2023-03-24T13:43:17.885Z,19.66
2023-03-24T13:48:29.463Z,19.50
2023-03-24T13:53:44.212Z,19.36
2023-03-24T13:58:47.998Z,19.25
2023-03-24T14:04:14.849Z,19.19
2023-03-24T14:09:21.588Z,19.18
2023-03-24T14:14:26.006Z,19.23
2023-03-24T14:20:02.578Z,19.23
2023-03-24T14:25:20.139Z,19.19
2023-03-24T14:30:30.661Z,19.19
2023-03-24T14:35:46.819Z,19.13
2023-03-24T14:40:56.637Z,18.99
2023-03-24T14:46:02.390Z,18.84
2023-03-24T14:51:13.854Z,18.83
2023-03-24T14:56:18.460Z,18.88
2023-03-24T15:01:22.298Z,18.84
2023-03-24T15:06:24.587Z,18.67
2023-03-24T15:11:31.028Z,18.49
2023-03-24T15:16:35.756Z,18.32
2023-03-24T15:21:39.836Z,18.17
2023-03-24T15:26:41.532Z,18.07
2023-03-24T15:31:43.451Z,17.92
2023-03-24T15:36:46.506Z,17.63
2023-03-24T15:41:52.879Z,17.35
2023-03-24T15:46:58.141Z,17.23
2023-03-24T15:52:02.869Z,17.14
2023-03-24T15:57:23.780Z,16.90
2023-03-24T16:02:33.391Z,16.59
2023-03-24T16:07:35.723Z,16.34
2023-03-24T16:12:38.146Z,16.14
2023-03-24T16:17:40.550Z,15.94
2023-03-24T16:22:42.393Z,15.77
2023-03-24T16:27:44.186Z,15.59
2023-03-24T16:32:46.239Z,15.42
2023-03-24T16:37:48.284Z,15.19
2023-03-24T16:42:50.088Z,14.97
2023-03-24T16:47:51.954Z,14.79
2023-03-24T16:52:53.940Z,14.65
2023-03-24T16:57:55.656Z,14.53
2023-03-24T17:03:00.005Z,14.40
2023-03-24T17:08:02.375Z,14.22
2023-03-24T17:13:04.141Z,14.04
2023-03-24T17:18:08.374Z,13.84
2023-03-24T17:23:12.966Z,13.69
2023-03-24T17:28:16.397Z,13.58
2023-03-24T17:33:18.449Z,13.51
2023-03-24T17:38:20.819Z,13.54
2023-03-24T17:43:22.560Z,13.59
2023-03-24T17:48:25.264Z,13.63
2023-03-24T17:53:27.038Z,13.73
2023-03-24T17:58:29.436Z,13.80
2023-03-24T18:03:31.175Z,13.85
2023-03-24T18:08:33.621Z,13.83
2023-03-24T18:13:35.492Z,13.80
2023-03-24T18:18:38.507Z,13.77
2023-03-24T18:23:40.372Z,13.73
2023-03-24T18:28:44.162Z,13.70
2023-03-24T18:33:48.125Z,13.68
2023-03-24T18:38:49.941Z,13.65
2023-03-24T18:43:51.711Z,13.62
2023-03-24T18:48:55.467Z,13.58
2023-03-24T18:53:58.743Z,13.53
2023-03-24T18:59:01.571Z,13.50
2023-03-24T19:04:03.672Z,13.49
2023-03-24T19:09:05.476Z,13.49
2023-03-24T19:14:07.290Z,13.48
2023-03-24T19:19:09.954Z,13.45
2023-03-24T19:24:12.087Z,13.43
2023-03-24T19:29:15.280Z,13.42
2023-03-24T19:34:17.863Z,13.41
2023-03-24T19:39:20.009Z,13.37
2023-03-24T19:44:22.558Z,13.34
2023-03-24T19:49:24.383Z,13.31
2023-03-24T19:54:26.198Z,13.24
2023-03-24T19:59:28.227Z,13.20
2023-03-24T20:04:29.965Z,13.17
2023-03-24T20:09:31.660Z,13.12
2023-03-24T20:14:33.733Z,13.03
2023-03-24T20:19:37.913Z,12.92
2023-03-24T20:24:39.865Z,12.84
2023-03-24T20:29:42.673Z,12.77
2023-03-24T20:34:44.448Z,12.71
2023-03-24T20:39:46.223Z,12.69
2023-03-24T20:44:48.005Z,12.72
2023-03-24T20:49:50.575Z,12.78
2023-03-24T20:54:55.288Z,12.84
2023-03-24T20:59:57.155Z,12.88
2023-03-24T21:04:58.858Z,12.94
2023-03-24T21:10:00.584Z,12.98
2023-03-24T21:15:05.281Z,13.04
2023-03-24T21:20:13.753Z,13.09
2023-03-24T21:25:15.668Z,13.11
2023-03-24T21:30:22.503Z,13.12
2023-03-24T21:35:25.462Z,13.13
2023-03-24T21:40:27.458Z,13.16
2023-03-24T21:45:32.365Z,13.16
2023-03-24T21:50:34.860Z,13.14
2023-03-24T21:55:36.703Z,13.11
2023-03-24T22:00:40.104Z,13.06
2023-03-24T22:05:43.044Z,13.01
2023-03-24T22:10:54.421Z,12.97
2023-03-24T22:15:58.464Z,12.94
2023-03-24T22:21:06.972Z,12.91
2023-03-24T22:26:14.608Z,12.91
2023-03-24T22:31:16.821Z,12.90
2023-03-24T22:36:18.860Z,12.88
2023-03-24T22:41:21.636Z,12.87
2023-03-24T22:46:24.528Z,12.86
2023-03-24T22:51:28.888Z,12.85
2023-03-24T22:56:30.649Z,12.83
2023-03-24T23:01:32.405Z,12.80
2023-03-24T23:06:34.645Z,12.78
2023-03-24T23:11:36.445Z,12.73
2023-03-24T23:16:38.669Z,12.68
2023-03-24T23:21:40.448Z,12.63
2023-03-24T23:26:42.123Z,12.60
2023-03-24T23:31:44.057Z,12.56
2023-03-24T23:36:49.912Z,12.49
2023-03-24T23:41:51.702Z,12.41
2023-03-24T23:46:53.589Z,12.23
2023-03-24T23:51:55.295Z,12.04
2023-03-24T23:56:57.069Z,11.92
